createdAt,value
2019-04-28T00:00:55.700Z,11.57
2019-04-28T00:02:04.125Z,8.87
2019-04-28T00:03:10.897Z,7.73
2019-04-28T00:04:18.393Z,8.97
2019-04-28T00:05:25.508Z,7.27
2019-04-28T00:06:32.323Z,12.37
2019-04-28T00:07:41.007Z,10.93
2019-04-28T00:08:47.836Z,16.73
2019-04-28T00:09:54.943Z,7.77
2019-04-28T00:11:01.996Z,7.10
2019-04-28T00:12:11.281Z,13.77
2019-04-28T00:13:17.847Z,17.50
2019-04-28T00:14:24.589Z,11.97
2019-04-28T00:15:31.545Z,8.37
2019-04-28T00:16:38.710Z,7.73
2019-04-28T00:17:45.469Z,11.23
2019-04-28T00:18:52.598Z,12.07
2019-04-28T00:20:01.437Z,14.50
2019-04-28T00:21:15.413Z,6.60
2019-04-28T00:22:32.450Z,18.13
2019-04-28T00:23:56.215Z,19.40
2019-04-28T00:25:11.513Z,10.17
2019-04-28T00:26:37.774Z,10.43
2019-04-28T00:27:44.955Z,7.87
2019-04-28T00:28:51.717Z,13.47
2019-04-28T00:29:58.481Z,11.40
2019-04-28T00:31:05.806Z,6.67
2019-04-28T00:32:13.107Z,16.00
2019-04-28T00:33:19.848Z,8.00
2019-04-28T00:34:26.589Z,8.53
2019-04-28T00:35:35.236Z,15.07
2019-04-28T00:36:43.578Z,13.00
2019-04-28T00:37:51.695Z,10.03
2019-04-28T00:38:59.247Z,14.83
2019-04-28T00:40:10.958Z,9.80
2019-04-28T00:41:17.456Z,8.73
2019-04-28T00:42:24.203Z,8.90
2019-04-28T00:43:31.808Z,13.00
2019-04-28T00:44:39.047Z,19.83
2019-04-28T00:45:45.789Z,9.37
2019-04-28T00:46:52.889Z,7.23
2019-04-28T00:48:00.987Z,15.93
2019-04-28T00:49:08.050Z,9.93
2019-04-28T00:50:15.286Z,16.00
2019-04-28T00:51:22.363Z,10.57
2019-04-28T00:52:29.618Z,12.50
2019-04-28T00:53:36.723Z,12.83
2019-04-28T00:54:43.479Z,12.30
2019-04-28T00:55:51.622Z,11.03
2019-04-28T00:56:58.662Z,10.07
2019-04-28T00:58:05.413Z,11.03
2019-04-28T00:59:12.617Z,17.00
2019-04-28T01:00:23.052Z,7.03
2019-04-28T01:01:42.705Z,8.00
2019-04-28T01:02:50.972Z,16.83
2019-04-28T01:03:59.180Z,11.83
2019-04-28T01:05:07.652Z,11.80
2019-04-28T01:06:14.395Z,13.00
2019-04-28T01:07:21.369Z,10.30
2019-04-28T01:08:28.182Z,11.97
2019-04-28T01:09:35.247Z,16.23
2019-04-28T01:10:42.333Z,9.43
2019-04-28T01:11:49.074Z,10.20
2019-04-28T01:12:56.173Z,14.33
2019-04-28T01:14:02.908Z,8.90
2019-04-28T01:15:17.471Z,12.27
2019-04-28T01:16:34.447Z,15.10
2019-04-28T01:18:03.910Z,12.10
2019-04-28T01:19:20.211Z,12.33
2019-04-28T01:20:29.602Z,14.30
2019-04-28T01:22:10.381Z,16.77
2019-04-28T01:23:17.454Z,16.40
2019-04-28T01:24:24.201Z,17.10
2019-04-28T01:25:31.705Z,13.37
2019-04-28T01:26:39.163Z,12.33
2019-04-28T01:27:54.681Z,7.13
2019-04-28T01:29:01.817Z,8.83
2019-04-28T01:30:14.814Z,12.80
2019-04-28T01:31:44.770Z,8.63
2019-04-28T01:32:57.621Z,7.00
2019-04-28T01:34:23.221Z,17.60
2019-04-28T01:35:30.315Z,20.87
2019-04-28T01:36:39.856Z,14.90
2019-04-28T01:37:46.731Z,16.33
2019-04-28T01:38:53.829Z,15.10
2019-04-28T01:40:00.626Z,18.17
2019-04-28T01:41:09.694Z,13.10
2019-04-28T01:42:16.514Z,9.40
2019-04-28T01:43:23.563Z,7.97
2019-04-28T01:44:30.646Z,13.00
2019-04-28T01:45:37.599Z,12.57
2019-04-28T01:46:44.376Z,13.93
2019-04-28T01:47:51.138Z,18.53
2019-04-28T01:48:59.783Z,10.47
2019-04-28T01:50:07.018Z,17.70
2019-04-28T01:51:14.248Z,12.00
2019-04-28T01:52:20.980Z,18.67
2019-04-28T01:53:27.730Z,12.47
2019-04-28T01:54:34.469Z,8.83
2019-04-28T01:55:41.546Z,10.73
2019-04-28T01:56:50.167Z,12.77
2019-04-28T01:57:57.131Z,11.80
2019-04-28T01:59:03.883Z,8.57
2019-04-28T02:00:22.305Z,22.53
2019-04-28T02:01:21.471Z,15.83
2019-04-28T02:02:30.051Z,15.23
2019-04-28T02:03:37.268Z,13.63
2019-04-28T02:04:44.096Z,21.77
2019-04-28T02:05:51.181Z,11.53
2019-04-28T02:06:59.803Z,12.93
2019-04-28T02:08:07.075Z,15.27
2019-04-28T02:09:13.852Z,16.03
2019-04-28T02:10:21.857Z,10.50
2019-04-28T02:11:29.584Z,15.33
2019-04-28T02:12:36.459Z,11.87
2019-04-28T02:13:43.594Z,13.70
2019-04-28T02:14:52.169Z,11.60
2019-04-28T02:16:00.033Z,11.97
2019-04-28T02:17:07.226Z,12.67
2019-04-28T02:18:14.361Z,8.33
2019-04-28T02:19:21.437Z,17.83
2019-04-28T02:20:30.011Z,12.50
2019-04-28T02:21:59.390Z,14.30
2019-04-28T02:23:14.772Z,18.30
2019-04-28T02:24:31.982Z,15.93
2019-04-28T02:25:39.879Z,12.93
2019-04-28T02:26:46.878Z,20.50
2019-04-28T02:27:56.964Z,13.20
2019-04-28T02:29:02.918Z,12.60
2019-04-28T02:30:11.513Z,8.00
2019-04-28T02:31:24.057Z,8.13
2019-04-28T02:32:30.589Z,9.50
2019-04-28T02:33:36.285Z,14.50
2019-04-28T02:34:43.201Z,13.27
2019-04-28T02:35:51.071Z,13.67
2019-04-28T02:37:01.012Z,15.70
2019-04-28T02:38:06.472Z,12.03
2019-04-28T02:39:13.206Z,14.90
2019-04-28T02:40:20.882Z,14.50
2019-04-28T02:41:30.645Z,25.57
2019-04-28T02:42:36.648Z,11.67
2019-04-28T02:43:43.381Z,23.23
2019-04-28T02:44:50.931Z,18.77
2019-04-28T02:46:00.696Z,13.07
2019-04-28T02:47:10.752Z,16.87
2019-04-28T02:48:21.830Z,16.00
2019-04-28T02:49:47.098Z,14.40
2019-04-28T02:51:05.309Z,10.20
2019-04-28T02:52:22.603Z,14.30
2019-04-28T02:53:33.621Z,15.63
2019-04-28T02:54:40.689Z,21.30
2019-04-28T02:55:47.548Z,10.20
2019-04-28T02:56:54.574Z,15.17
2019-04-28T02:58:01.647Z,19.60
2019-04-28T02:59:10.985Z,13.00
2019-04-28T03:00:21.301Z,18.03
2019-04-28T03:01:27.349Z,11.30
2019-04-28T03:02:34.458Z,13.10
2019-04-28T03:03:41.196Z,15.73
2019-04-28T03:04:50.603Z,17.73
2019-04-28T03:05:57.132Z,16.20
2019-04-28T03:07:04.216Z,11.10
2019-04-28T03:08:11.223Z,22.27
2019-04-28T03:09:20.254Z,14.77
2019-04-28T03:10:26.693Z,14.73
2019-04-28T03:11:33.928Z,15.07
2019-04-28T03:12:41.619Z,20.10
2019-04-28T03:13:50.856Z,21.63
2019-04-28T03:14:57.003Z,20.73
2019-04-28T03:16:03.723Z,20.87
2019-04-28T03:17:11.098Z,16.07
2019-04-28T03:18:18.089Z,21.67
2019-04-28T03:19:25.190Z,15.10
2019-04-28T03:20:32.211Z,19.83
2019-04-28T03:21:41.595Z,24.70
2019-04-28T03:22:50.809Z,23.83
2019-04-28T03:23:56.777Z,34.10
2019-04-28T03:25:05.532Z,24.57
2019-04-28T03:26:37.134Z,28.60
2019-04-28T03:27:55.702Z,24.23
2019-04-28T03:29:10.864Z,18.43
2019-04-28T03:30:35.930Z,25.83
2019-04-28T03:32:16.104Z,25.20
2019-04-28T03:33:11.564Z,14.93
2019-04-28T03:34:14.313Z,29.23
2019-04-28T03:35:22.845Z,23.83
2019-04-28T03:36:32.999Z,20.30
2019-04-28T03:37:41.161Z,17.90
2019-04-28T03:38:47.079Z,28.53
2019-04-28T03:39:53.840Z,20.47
2019-04-28T03:41:01.216Z,21.00
2019-04-28T03:42:11.462Z,17.00
2019-04-28T03:43:17.209Z,25.23
2019-04-28T03:44:24.323Z,22.67
2019-04-28T03:45:36.461Z,24.47
2019-04-28T03:46:51.152Z,27.53
2019-04-28T03:48:00.212Z,20.90
2019-04-28T03:49:06.576Z,22.70
2019-04-28T03:50:13.518Z,27.03
2019-04-28T03:51:21.298Z,21.57
2019-04-28T03:52:28.489Z,20.37
2019-04-28T03:53:35.600Z,21.00
2019-04-28T03:54:42.314Z,28.87
2019-04-28T03:55:51.353Z,24.40
2019-04-28T03:56:57.474Z,21.00
2019-04-28T03:58:04.265Z,17.87
2019-04-28T03:59:11.299Z,18.50
2019-04-28T04:00:18.685Z,23.83
2019-04-28T04:01:25.860Z,22.63
2019-04-28T04:02:32.620Z,22.00
2019-04-28T04:03:41.750Z,21.30
2019-04-28T04:04:48.139Z,20.83
2019-04-28T04:05:54.900Z,20.70
2019-04-28T04:07:01.987Z,23.63
2019-04-28T04:08:10.951Z,20.00
2019-04-28T04:09:17.237Z,16.10
2019-04-28T04:10:34.126Z,18.97
2019-04-28T04:11:45.036Z,24.73
2019-04-28T04:13:01.887Z,21.83
2019-04-28T04:14:24.324Z,25.23
2019-04-28T04:15:50.533Z,20.43
2019-04-28T04:17:05.415Z,23.00
2019-04-28T04:18:16.529Z,30.40
2019-04-28T04:19:23.367Z,25.10
2019-04-28T04:20:31.182Z,23.10
2019-04-28T04:21:40.562Z,18.17
2019-04-28T04:22:46.916Z,25.00
2019-04-28T04:23:54.066Z,21.63
2019-04-28T04:25:01.445Z,19.43
2019-04-28T04:26:11.492Z,22.00
2019-04-28T04:27:17.015Z,24.37
2019-04-28T04:28:23.786Z,20.90
2019-04-28T04:29:31.037Z,36.70
2019-04-28T04:30:40.567Z,30.33
2019-04-28T04:31:46.659Z,25.50
2019-04-28T04:32:53.426Z,35.67
2019-04-28T04:34:02.841Z,21.40
2019-04-28T04:35:10.401Z,21.63
2019-04-28T04:36:17.693Z,20.40
2019-04-28T04:37:24.500Z,17.77
2019-04-28T04:38:31.581Z,15.80
2019-04-28T04:39:40.751Z,25.43
2019-04-28T04:40:47.386Z,31.37
2019-04-28T04:41:54.516Z,21.00
2019-04-28T04:43:02.025Z,19.80
2019-04-28T04:44:11.189Z,21.20
2019-04-28T04:45:20.274Z,21.63
2019-04-28T04:46:27.251Z,21.37
2019-04-28T04:47:34.095Z,23.73
2019-04-28T04:48:41.401Z,22.07
2019-04-28T04:49:50.321Z,20.57
2019-04-28T04:50:56.578Z,19.23
2019-04-28T04:52:03.360Z,21.03
2019-04-28T04:53:10.996Z,20.70
2019-04-28T04:54:20.530Z,24.90
2019-04-28T04:55:27.364Z,31.57
2019-04-28T04:56:34.118Z,26.17
2019-04-28T04:57:41.307Z,24.40
2019-04-28T04:58:50.289Z,23.67
2019-04-28T04:59:56.968Z,15.40
2019-04-28T05:01:30.313Z,25.33
2019-04-28T05:03:03.235Z,23.20
2019-04-28T05:04:34.990Z,28.10
2019-04-28T05:05:42.690Z,20.60
2019-04-28T05:06:49.807Z,20.43
2019-04-28T05:07:56.892Z,22.30
2019-04-28T05:09:05.898Z,38.10
2019-04-28T05:10:12.954Z,24.00
2019-04-28T05:11:20.186Z,15.97
2019-04-28T05:12:27.301Z,16.90
2019-04-28T05:13:34.049Z,22.50
2019-04-28T05:14:41.099Z,19.13
2019-04-28T05:15:47.987Z,25.23
2019-04-28T05:16:55.049Z,18.53
2019-04-28T05:18:01.819Z,29.83
2019-04-28T05:19:10.182Z,15.07
2019-04-28T05:20:17.499Z,22.07
2019-04-28T05:21:25.001Z,26.50
2019-04-28T05:22:34.299Z,20.90
2019-04-28T05:24:09.219Z,15.70
2019-04-28T05:25:37.373Z,26.87
2019-04-28T05:26:47.615Z,18.97
2019-04-28T05:27:54.574Z,24.10
2019-04-28T05:29:01.946Z,17.67
2019-04-28T05:30:10.431Z,24.80
2019-04-28T05:31:23.389Z,26.57
2019-04-28T05:32:39.222Z,22.67
2019-04-28T05:33:35.800Z,28.13
2019-04-28T05:34:46.751Z,20.97
2019-04-28T05:35:54.560Z,20.47
2019-04-28T05:37:00.707Z,21.50
2019-04-28T05:38:07.863Z,17.53
2019-04-28T05:39:15.033Z,14.83
2019-04-28T05:40:22.167Z,18.87
2019-04-28T05:41:29.613Z,22.67
2019-04-28T05:42:36.474Z,16.97
2019-04-28T05:43:43.913Z,24.30
2019-04-28T05:44:51.017Z,20.00
2019-04-28T05:45:57.747Z,18.00
2019-04-28T05:47:04.517Z,33.63
2019-04-28T05:48:11.817Z,20.03
2019-04-28T05:49:52.831Z,23.27
2019-04-28T05:51:04.624Z,18.97
2019-04-28T05:52:30.013Z,18.27
2019-04-28T05:53:44.926Z,12.53
2019-04-28T05:54:56.878Z,15.97
2019-04-28T05:56:10.529Z,18.40
2019-04-28T05:57:22.178Z,28.33
2019-04-28T05:58:45.636Z,18.80
2019-04-28T06:00:06.351Z,22.60
2019-04-28T06:01:32.032Z,21.57
2019-04-28T06:02:55.493Z,11.93
2019-04-28T06:03:50.947Z,13.70
2019-04-28T06:04:59.854Z,24.93
2019-04-28T06:06:06.454Z,20.33
2019-04-28T06:07:20.759Z,25.23
2019-04-28T06:08:45.014Z,36.23
2019-04-28T06:09:53.742Z,19.43
2019-04-28T06:11:02.120Z,16.10
2019-04-28T06:12:11.338Z,21.10
2019-04-28T06:13:20.069Z,13.97
2019-04-28T06:14:26.994Z,15.83
2019-04-28T06:15:33.735Z,21.30
2019-04-28T06:16:40.915Z,25.33
2019-04-28T06:17:47.662Z,14.27
2019-04-28T06:18:54.482Z,15.50
2019-04-28T06:20:01.237Z,9.70
2019-04-28T06:21:08.342Z,13.90
2019-04-28T06:22:17.741Z,16.27
2019-04-28T06:23:23.887Z,15.47
2019-04-28T06:24:30.652Z,17.60
2019-04-28T06:25:37.778Z,12.17
2019-04-28T06:26:44.879Z,16.30
2019-04-28T06:27:51.957Z,21.90
2019-04-28T06:28:58.716Z,13.73
2019-04-28T06:30:06.899Z,23.47
2019-04-28T06:31:13.777Z,16.27
2019-04-28T06:32:20.646Z,16.60
2019-04-28T06:33:28.453Z,9.60
2019-04-28T06:34:35.537Z,27.13
2019-04-28T06:35:42.664Z,16.10
2019-04-28T06:36:49.525Z,9.20
2019-04-28T06:37:56.977Z,16.70
2019-04-28T06:39:04.507Z,17.23
2019-04-28T06:40:11.649Z,12.57
2019-04-28T06:41:19.105Z,15.87
2019-04-28T06:42:26.397Z,11.00
2019-04-28T06:43:33.468Z,23.33
2019-04-28T06:44:40.200Z,9.77
2019-04-28T06:45:47.069Z,13.60
2019-04-28T06:46:54.138Z,11.73
2019-04-28T06:48:01.299Z,10.93
2019-04-28T06:49:08.502Z,13.63
2019-04-28T06:50:15.800Z,18.43
2019-04-28T06:51:22.599Z,19.10
2019-04-28T06:52:29.828Z,12.13
2019-04-28T06:53:36.903Z,10.50
2019-04-28T06:54:43.637Z,9.50
2019-04-28T06:55:50.418Z,10.90
2019-04-28T06:56:57.181Z,12.83
2019-04-28T06:58:04.311Z,12.67
2019-04-28T06:59:11.389Z,14.03
2019-04-28T07:00:19.181Z,15.90
2019-04-28T07:01:26.356Z,15.10
2019-04-28T07:02:33.107Z,6.33
2019-04-28T07:03:40.231Z,7.57
2019-04-28T07:04:46.978Z,12.37
2019-04-28T07:05:53.745Z,13.73
2019-04-28T07:07:00.589Z,13.10
2019-04-28T07:08:07.359Z,9.13
2019-04-28T07:09:14.534Z,14.17
2019-04-28T07:10:21.328Z,13.33
2019-04-28T07:11:28.444Z,10.47
2019-04-28T07:12:35.195Z,9.57
2019-04-28T07:13:42.263Z,6.30
2019-04-28T07:14:49.105Z,7.13
2019-04-28T07:15:55.905Z,12.97
2019-04-28T07:17:03.116Z,11.07
2019-04-28T07:18:10.207Z,9.20
2019-04-28T07:19:17.563Z,10.10
2019-04-28T07:20:43.175Z,7.03
2019-04-28T07:22:08.859Z,10.73
2019-04-28T07:23:16.044Z,9.17
2019-04-28T07:24:22.882Z,7.60
2019-04-28T07:25:29.624Z,5.97
2019-04-28T07:26:36.427Z,7.50
2019-04-28T07:27:43.203Z,7.77
2019-04-28T07:28:50.404Z,10.10
2019-04-28T07:29:57.272Z,12.60
2019-04-28T07:31:04.200Z,8.87
2019-04-28T07:32:11.262Z,8.83
2019-04-28T07:33:18.444Z,5.30
2019-04-28T07:34:25.523Z,11.63
2019-04-28T07:35:32.905Z,6.67
2019-04-28T07:36:40.074Z,5.20
2019-04-28T07:37:47.469Z,12.63
2019-04-28T07:38:54.246Z,9.37
2019-04-28T07:40:01.008Z,6.53
2019-04-28T07:41:08.191Z,7.40
2019-04-28T07:42:15.103Z,8.40
2019-04-28T07:43:21.857Z,8.43
2019-04-28T07:44:28.916Z,6.33
2019-04-28T07:45:36.415Z,11.07
2019-04-28T07:46:43.203Z,8.27
2019-04-28T07:47:50.332Z,5.00
2019-04-28T07:48:57.096Z,9.83
2019-04-28T07:50:04.463Z,8.23
2019-04-28T07:51:11.226Z,8.77
2019-04-28T07:52:24.794Z,10.87
2019-04-28T07:53:39.676Z,6.60
2019-04-28T07:54:46.839Z,10.20
2019-04-28T07:55:53.902Z,10.40
2019-04-28T07:57:00.690Z,4.73
2019-04-28T07:58:07.866Z,10.33
2019-04-28T07:59:14.993Z,4.50
2019-04-28T08:00:27.849Z,10.37
2019-04-28T08:01:34.837Z,4.40
2019-04-28T08:02:42.651Z,5.50
2019-04-28T08:03:50.066Z,6.37
2019-04-28T08:04:57.721Z,6.23
2019-04-28T08:06:05.117Z,5.73
2019-04-28T08:07:11.994Z,7.27
2019-04-28T08:08:19.549Z,12.20
2019-04-28T08:09:26.731Z,6.03
2019-04-28T08:10:33.548Z,9.73
2019-04-28T08:11:40.525Z,6.13
2019-04-28T08:12:49.242Z,5.40
2019-04-28T08:13:56.075Z,8.13
2019-04-28T08:15:03.099Z,4.73
2019-04-28T08:16:10.040Z,4.63
2019-04-28T08:17:17.150Z,5.20
2019-04-28T08:18:24.845Z,7.23
2019-04-28T08:19:32.238Z,7.47
2019-04-28T08:20:39.380Z,7.70
2019-04-28T08:21:46.450Z,7.10
2019-04-28T08:22:53.931Z,3.23
2019-04-28T08:24:00.706Z,5.53
2019-04-28T08:25:08.363Z,7.50
2019-04-28T08:26:15.238Z,6.20
2019-04-28T08:27:22.785Z,4.53
2019-04-28T08:28:29.965Z,5.03
2019-04-28T08:29:36.816Z,7.40
2019-04-28T08:30:43.692Z,6.33
2019-04-28T08:32:00.467Z,4.13
2019-04-28T08:33:20.746Z,5.27
2019-04-28T08:34:27.594Z,9.77
2019-04-28T08:35:34.810Z,6.20
2019-04-28T08:36:42.054Z,4.70
2019-04-28T08:37:50.404Z,6.23
2019-04-28T08:38:57.728Z,7.80
2019-04-28T08:40:05.460Z,4.10
2019-04-28T08:41:13.204Z,4.47
2019-04-28T08:42:20.413Z,5.37
2019-04-28T08:43:27.768Z,3.00
2019-04-28T08:44:35.070Z,2.83
2019-04-28T08:45:42.219Z,6.73
2019-04-28T08:46:50.012Z,3.70
2019-04-28T08:47:58.080Z,4.60
2019-04-28T08:49:05.372Z,3.53
2019-04-28T08:50:13.478Z,7.67
2019-04-28T08:51:20.410Z,5.20
2019-04-28T08:52:27.897Z,2.67
2019-04-28T08:53:34.869Z,3.40
2019-04-28T08:54:41.760Z,3.70
2019-04-28T08:55:49.643Z,9.37
2019-04-28T08:56:56.479Z,3.53
2019-04-28T08:58:03.327Z,5.67
2019-04-28T08:59:10.351Z,8.40
2019-04-28T09:00:18.953Z,5.03
2019-04-28T09:01:25.878Z,5.10
2019-04-28T09:02:33.296Z,3.30
2019-04-28T09:03:40.303Z,3.40
2019-04-28T09:04:47.743Z,4.43
2019-04-28T09:05:54.878Z,4.63
2019-04-28T09:07:02.342Z,7.33
2019-04-28T09:08:09.507Z,8.40
2019-04-28T09:09:17.701Z,6.70
2019-04-28T09:10:24.911Z,7.40
2019-04-28T09:11:32.007Z,5.20
2019-04-28T09:12:38.953Z,10.33
2019-04-28T09:13:46.534Z,4.83
2019-04-28T09:14:53.674Z,5.93
2019-04-28T09:16:01.609Z,4.20
2019-04-28T09:17:08.964Z,11.67
2019-04-28T09:18:16.073Z,7.97
2019-04-28T09:19:23.416Z,6.43
2019-04-28T09:20:30.531Z,7.77
2019-04-28T09:21:37.657Z,3.93
2019-04-28T09:22:44.451Z,6.93
2019-04-28T09:23:51.727Z,5.63
2019-04-28T09:24:58.978Z,5.87
2019-04-28T09:26:06.109Z,7.67
2019-04-28T09:27:13.015Z,6.40
2019-04-28T09:28:20.330Z,4.57
2019-04-28T09:29:27.081Z,8.67
2019-04-28T09:30:34.185Z,4.10
2019-04-28T09:31:40.976Z,3.50
2019-04-28T09:32:48.207Z,3.80
2019-04-28T09:33:54.951Z,3.73
2019-04-28T09:35:01.708Z,5.33
2019-04-28T09:36:08.510Z,4.50
2019-04-28T09:37:15.627Z,4.23
2019-04-28T09:38:22.700Z,5.03
2019-04-28T09:39:52.005Z,4.07
2019-04-28T09:40:58.762Z,3.73
2019-04-28T09:42:39.703Z,6.43
2019-04-28T09:44:11.369Z,5.07
2019-04-28T09:45:21.193Z,6.73
2019-04-28T09:46:33.390Z,8.67
2019-04-28T09:47:40.752Z,8.77
2019-04-28T09:48:47.835Z,5.90
2019-04-28T09:49:54.889Z,5.80
2019-04-28T09:51:01.952Z,8.47
2019-04-28T09:52:09.341Z,3.70
2019-04-28T09:53:16.428Z,3.80
2019-04-28T09:54:23.174Z,7.00
2019-04-28T09:55:29.978Z,4.30
2019-04-28T09:56:37.229Z,4.03
2019-04-28T09:57:43.996Z,5.37
2019-04-28T09:58:50.880Z,10.43
2019-04-28T09:59:58.022Z,17.00
2019-04-28T10:01:05.112Z,8.43
2019-04-28T10:02:12.334Z,8.50
2019-04-28T10:03:19.287Z,6.50
2019-04-28T10:04:26.580Z,4.23
2019-04-28T10:05:33.504Z,2.80
2019-04-28T10:06:40.657Z,3.80
2019-04-28T10:07:47.932Z,4.20
2019-04-28T10:08:55.593Z,5.43
2019-04-28T10:10:02.405Z,4.80
2019-04-28T10:11:09.170Z,4.87
2019-04-28T10:12:26.574Z,4.17
2019-04-28T10:13:25.243Z,4.43
2019-04-28T10:14:33.175Z,3.20
2019-04-28T10:15:39.928Z,5.37
2019-04-28T10:16:47.506Z,4.77
2019-04-28T10:17:54.450Z,3.13
2019-04-28T10:19:01.573Z,6.73
2019-04-28T10:20:09.296Z,5.13
2019-04-28T10:21:16.463Z,5.33
2019-04-28T10:22:23.303Z,4.63
2019-04-28T10:23:30.182Z,4.50
2019-04-28T10:24:37.706Z,2.80
2019-04-28T10:25:44.768Z,4.93
2019-04-28T10:26:51.490Z,4.23
2019-04-28T10:27:58.619Z,3.80
2019-04-28T10:29:05.899Z,2.50
2019-04-28T10:30:13.615Z,3.13
2019-04-28T10:31:20.693Z,3.27
2019-04-28T10:32:27.479Z,3.63
2019-04-28T10:33:34.258Z,4.20
2019-04-28T10:34:54.055Z,5.17
2019-04-28T10:35:49.591Z,3.07
2019-04-28T10:36:56.775Z,5.53
2019-04-28T10:38:03.570Z,9.13
2019-04-28T10:39:31.159Z,4.20
2019-04-28T10:40:47.469Z,5.03
2019-04-28T10:41:54.598Z,5.23
2019-04-28T10:43:01.788Z,6.23
2019-04-28T10:44:09.020Z,5.30
2019-04-28T10:45:19.671Z,4.63
2019-04-28T10:46:26.524Z,8.00
2019-04-28T10:47:33.661Z,5.37
2019-04-28T10:48:40.740Z,8.60
2019-04-28T10:49:47.487Z,4.47
2019-04-28T10:50:54.691Z,5.77
2019-04-28T10:52:01.979Z,4.93
2019-04-28T10:53:08.755Z,4.93
2019-04-28T10:54:15.603Z,4.23
2019-04-28T10:55:22.366Z,5.60
2019-04-28T10:56:29.698Z,4.00
2019-04-28T10:57:36.966Z,6.43
2019-04-28T10:58:45.655Z,4.30
2019-04-28T10:59:52.407Z,7.70
2019-04-28T11:00:59.522Z,6.03
2019-04-28T11:02:06.310Z,6.30
2019-04-28T11:03:13.378Z,5.90
2019-04-28T11:04:38.275Z,8.90
2019-04-28T11:05:45.877Z,4.80
2019-04-28T11:06:52.621Z,4.60
2019-04-28T11:07:59.842Z,6.20
2019-04-28T11:09:30.124Z,5.37
2019-04-28T11:10:27.755Z,5.63
2019-04-28T11:11:34.803Z,4.87
2019-04-28T11:12:41.630Z,4.60
2019-04-28T11:13:48.727Z,4.57
2019-04-28T11:14:55.758Z,4.07
2019-04-28T11:16:02.643Z,5.60
2019-04-28T11:17:09.426Z,6.50
2019-04-28T11:18:17.218Z,8.30
2019-04-28T11:19:24.320Z,7.67
2019-04-28T11:20:31.102Z,10.00
2019-04-28T11:21:37.858Z,5.47
2019-04-28T11:22:44.942Z,6.50
2019-04-28T11:23:52.182Z,6.60
2019-04-28T11:24:58.933Z,6.30
2019-04-28T11:26:05.954Z,6.13
2019-04-28T11:27:12.795Z,8.57
2019-04-28T11:28:19.540Z,5.67
2019-04-28T11:29:26.346Z,9.93
2019-04-28T11:30:33.932Z,8.13
2019-04-28T11:31:40.755Z,10.23
2019-04-28T11:32:59.039Z,6.17
2019-04-28T11:34:23.948Z,6.83
2019-04-28T11:35:31.766Z,8.97
2019-04-28T11:36:38.557Z,4.93
2019-04-28T11:37:45.314Z,9.13
2019-04-28T11:38:52.710Z,4.37
2019-04-28T11:39:59.798Z,5.43
2019-04-28T11:41:07.479Z,6.37
2019-04-28T11:42:14.913Z,7.30
2019-04-28T11:43:22.053Z,8.37
2019-04-28T11:44:28.798Z,8.43
2019-04-28T11:45:35.952Z,9.10
2019-04-28T11:46:42.759Z,5.70
2019-04-28T11:47:49.524Z,8.93
2019-04-28T11:48:56.269Z,10.03
2019-04-28T11:50:03.065Z,8.23
2019-04-28T11:51:09.930Z,8.77
2019-04-28T11:52:17.216Z,6.03
2019-04-28T11:53:24.497Z,7.03
2019-04-28T11:54:31.705Z,7.10
2019-04-28T11:55:38.485Z,5.80
2019-04-28T11:56:45.251Z,6.00
2019-04-28T11:57:52.007Z,10.57
2019-04-28T11:58:58.900Z,8.77
2019-04-28T12:00:12.578Z,4.13
2019-04-28T12:01:20.330Z,9.00
2019-04-28T12:02:27.402Z,8.43
2019-04-28T12:03:34.220Z,7.40
2019-04-28T12:04:41.021Z,12.63
2019-04-28T12:05:48.333Z,9.47
2019-04-28T12:06:55.416Z,5.20
2019-04-28T12:08:02.226Z,9.47
2019-04-28T12:09:40.416Z,8.00
2019-04-28T12:10:53.039Z,14.00
2019-04-28T12:12:00.314Z,9.30
2019-04-28T12:13:17.608Z,10.20
2019-04-28T12:14:43.441Z,12.73
2019-04-28T12:16:09.331Z,7.67
2019-04-28T12:17:31.735Z,9.07
2019-04-28T12:19:09.772Z,30.10
2019-04-28T12:20:19.718Z,18.00
2019-04-28T12:21:26.483Z,6.90
2019-04-28T12:22:33.460Z,6.80
2019-04-28T12:23:40.260Z,5.40
2019-04-28T12:24:47.454Z,4.67
2019-04-28T12:25:55.020Z,2.70
2019-04-28T12:27:01.798Z,3.57
2019-04-28T12:28:08.954Z,4.70
2019-04-28T12:29:15.725Z,3.00
2019-04-28T12:30:23.022Z,2.63
2019-04-28T12:31:30.216Z,4.40
2019-04-28T12:32:37.350Z,4.37
2019-04-28T12:33:44.464Z,4.30
2019-04-28T12:34:51.543Z,6.43
2019-04-28T12:35:58.389Z,3.57
2019-04-28T12:37:05.142Z,4.60
2019-04-28T12:38:12.272Z,5.97
2019-04-28T12:39:19.352Z,2.77
2019-04-28T12:40:26.404Z,3.57
2019-04-28T12:41:33.610Z,2.20
2019-04-28T12:42:40.367Z,3.47
2019-04-28T12:43:47.107Z,4.27
2019-04-28T12:44:53.876Z,9.97
2019-04-28T12:46:00.772Z,3.23
2019-04-28T12:47:07.899Z,2.13
2019-04-28T12:48:14.960Z,2.10
2019-04-28T12:49:27.232Z,2.40
2019-04-28T12:50:39.842Z,2.83
2019-04-28T12:51:47.039Z,2.40
2019-04-28T12:52:54.108Z,2.97
2019-04-28T12:54:04.983Z,3.50
2019-04-28T12:55:12.538Z,2.07
2019-04-28T12:56:19.288Z,2.77
2019-04-28T12:57:26.068Z,6.53
2019-04-28T12:58:32.880Z,6.07
2019-04-28T12:59:45.289Z,3.00
2019-04-28T13:01:15.248Z,2.73
2019-04-28T13:02:50.125Z,2.20
2019-04-28T13:04:09.166Z,2.83
2019-04-28T13:05:16.353Z,1.90
2019-04-28T13:06:23.182Z,2.10
2019-04-28T13:07:29.968Z,1.87
2019-04-28T13:08:36.799Z,1.87
2019-04-28T13:09:44.067Z,2.70
2019-04-28T13:10:50.888Z,5.63
2019-04-28T13:11:57.714Z,2.77
2019-04-28T13:13:04.502Z,2.80
2019-04-28T13:14:11.269Z,1.83
2019-04-28T13:15:18.408Z,1.87
2019-04-28T13:16:25.593Z,2.90
2019-04-28T13:17:32.453Z,2.10
2019-04-28T13:18:39.994Z,3.77
2019-04-28T13:19:46.733Z,4.90
2019-04-28T13:20:53.629Z,4.60
2019-04-28T13:22:00.425Z,4.40
2019-04-28T13:23:07.233Z,7.30
2019-04-28T13:24:14.798Z,3.50
2019-04-28T13:25:21.934Z,5.40
2019-04-28T13:26:28.698Z,3.87
2019-04-28T13:27:35.512Z,4.77
2019-04-28T13:28:42.334Z,5.30
2019-04-28T13:29:49.106Z,8.60
2019-04-28T13:30:55.873Z,4.33
2019-04-28T13:32:02.746Z,3.27
2019-04-28T13:33:09.488Z,5.47
2019-04-28T13:34:18.139Z,5.03
2019-04-28T13:35:25.255Z,6.00
2019-04-28T13:36:33.201Z,7.20
2019-04-28T13:37:39.966Z,4.60
2019-04-28T13:38:46.739Z,3.50
2019-04-28T13:40:03.272Z,3.13
2019-04-28T13:41:10.020Z,2.80
2019-04-28T13:42:16.772Z,3.57
2019-04-28T13:43:23.887Z,2.30
2019-04-28T13:44:52.782Z,2.67
2019-04-28T13:45:59.648Z,2.10
2019-04-28T13:47:07.583Z,3.33
2019-04-28T13:48:14.739Z,1.73
2019-04-28T13:49:23.164Z,3.33
2019-04-28T13:50:36.862Z,1.80
2019-04-28T13:51:43.966Z,1.90
2019-04-28T13:52:51.376Z,2.97
2019-04-28T13:53:58.131Z,2.53
2019-04-28T13:55:16.100Z,2.77
2019-04-28T13:56:22.915Z,3.20
2019-04-28T13:57:30.072Z,4.00
2019-04-28T13:58:39.834Z,1.50
2019-04-28T13:59:47.785Z,1.97
2019-04-28T14:01:16.464Z,2.83
2019-04-28T14:02:41.727Z,1.93
2019-04-28T14:04:10.375Z,3.30
2019-04-28T14:05:39.316Z,2.13
2019-04-28T14:06:49.662Z,2.40
2019-04-28T14:07:56.819Z,3.43
2019-04-28T14:09:03.658Z,3.50
2019-04-28T14:10:11.215Z,1.67
2019-04-28T14:11:17.962Z,2.23
2019-04-28T14:12:24.772Z,1.87
2019-04-28T14:13:31.522Z,8.80
2019-04-28T14:14:38.304Z,2.40
2019-04-28T14:15:48.373Z,4.63
2019-04-28T14:16:53.915Z,5.00
2019-04-28T14:18:00.733Z,3.63
2019-04-28T14:19:07.519Z,4.50
2019-04-28T14:20:14.671Z,5.57
2019-04-28T14:21:21.867Z,3.03
2019-04-28T14:22:28.736Z,4.53
2019-04-28T14:23:35.876Z,4.30
2019-04-28T14:24:42.920Z,5.33
2019-04-28T14:25:50.034Z,6.70
2019-04-28T14:26:56.857Z,4.73
2019-04-28T14:28:03.679Z,5.43
2019-04-28T14:29:10.856Z,3.97
2019-04-28T14:30:18.095Z,5.13
2019-04-28T14:31:25.220Z,5.37
2019-04-28T14:32:32.780Z,5.53
2019-04-28T14:33:39.959Z,4.37
2019-04-28T14:34:47.062Z,6.47
2019-04-28T14:35:53.946Z,5.23
2019-04-28T14:37:01.250Z,6.57
2019-04-28T14:38:08.370Z,4.10
2019-04-28T14:39:15.228Z,4.50
2019-04-28T14:40:22.194Z,3.90
2019-04-28T14:41:29.506Z,4.30
2019-04-28T14:42:36.583Z,3.80
2019-04-28T14:43:43.676Z,4.77
2019-04-28T14:44:50.430Z,4.70
2019-04-28T14:45:57.760Z,7.80
2019-04-28T14:47:05.362Z,5.70
2019-04-28T14:48:12.137Z,8.00
2019-04-28T14:49:19.232Z,3.50
2019-04-28T14:50:26.111Z,5.10
2019-04-28T14:51:33.001Z,6.93
2019-04-28T14:52:39.833Z,6.30
2019-04-28T14:53:46.834Z,5.20
2019-04-28T14:54:53.795Z,11.43
2019-04-28T14:56:00.616Z,7.33
2019-04-28T14:57:07.794Z,9.57
2019-04-28T14:58:14.864Z,8.77
2019-04-28T14:59:22.051Z,4.90
2019-04-28T15:00:34.361Z,15.97
2019-04-28T15:02:09.690Z,6.07
2019-04-28T15:03:17.289Z,4.63
2019-04-28T15:04:31.236Z,3.53
2019-04-28T15:05:53.046Z,3.10